x

Buoy E01 - Central Maine Shelf (44032) Wave Buoy

7:04 - Tue 25th Apr 2017 All times are EDT. -4 hours from GMT.

  • Sig Wave height 4.3ft
  • Peak Period 5s
  • Wind
    18mph, 20mph gusts
  • Sea Temp 42°f
  • Air Temp 41°f
  • Sea Pressure 1025.3mb
  • Buoy E01 - Central Maine Shelf
  • Buoy E01 - Central Maine Shelf

More Historic Weather Station data

Upgrade to MSW Pro to gain access to the past 30 days of data for over 8000 Wavebouys and Weather Stations around the globe.

Join Pro

Comparision Forecast

View Surf forecast
   
mar. 04/25 7:04 4.5ft 5s 18 20 mph 1025.3mb 42f 41f
6:04 4ft 5s 18 22 mph 1026mb 42f 41f
5:04 3.5ft 5s 18 22 mph 1026.2mb 42f 40f
4:04 3.5ft 5s 18 20 mph 1027.1mb 42f 41f
3:04 3.5ft 5s 20 25 mph 1027.4mb 42f 41f
2:04 4ft 5s 20 25 mph 1027.8mb 42f 41f
1:04 4.5ft 5s 22 25 mph 1027.9mb 42f 41f
12:04 3.5ft 4s 20 27 mph 1028.5mb 42f 41f
11:04 3.5ft 4s 18 22 mph 1028.6mb 42f 41f
10:04 3.5ft 4s 18 20 mph 1028.3mb 42f 40f
9:04 3.5ft 4s 20 22 mph 1028.3mb 42f 39f
8:04 3.5ft 8s 18 22 mph 1028mb 42f 39f
7:04 2ft 3s 18 22 mph 1027.2mb 42f 39f
6:04 1.3ft 2s 16 18 mph 1026.5mb 42f 39f
5:04 1.6ft 2s 9 11 mph 1026mb 42f 38f
4:04 3.5ft 11s 11 13 mph 1025.9mb 43f 39f
3:04 2.5ft 8s 11 13 mph 1025.7mb 43f 40f
2:04 2.5ft 11s 9 11 mph 1025.4mb 43f 42f
1:04 2.5ft 11s 7 9 mph 1025.2mb 43f 42f
12:04 1.3ft 5s 4 7 mph 1024.7mb 43f 42f
lun. 04/24 11:04 2.5ft 11s 4 7 mph 1024.5mb 43f 43f
10:04 2.5ft 11s 7
mph
1024.5mb 43f 43f
9:04 1.3ft 4s 7
mph
1023.9mb 43f 43f
8:04 2.5ft 11s 7 9 mph 1023.3mb 43f 44f
7:04 3ft 11s 7
mph
1023mb 43f 44f
6:04 3ft 11s 7
mph
1022.7mb 43f 47f
5:04 3ft 11s 4
mph
1022.2mb 43f 46f
4:04 3.5ft 11s 7 9 mph 1021.6mb 45f 45f
3:04 3.5ft 11s 7 9 mph 1022.1mb 48f 46f
2:04 3.5ft 11s 7
mph
1022.1mb 48f 47f
1:04 3.5ft 11s 7
mph
1021.9mb 45f 47f
12:04 3.5ft 11s 4
mph
1022.1mb 44f 47f
11:04 3.5ft 5s 2
mph
1021.9mb 44f 47f
10:04 3.5ft 5s 4
mph
1021.6mb 44f 44f
9:04 4ft 5s 2 4 mph 1021.1mb 43f 43f
8:04 3.5ft 5s 4
mph
1020.4mb 42f 43f
7:04 4.5ft 5s 4 7 mph 1019.8mb 42f 42f
6:04 4.5ft 6s 7
mph
1019.2mb 41f 42f
5:04 5ft 5s 9 11 mph 1018.3mb 41f 43f
4:04 5ft 5s 13 16 mph 1017.8mb 42f 43f
2:04 5ft 6s 11 13 mph 1017mb 41f 44f
1:04 6ft 11s 16 18 mph 1017mb 42f 44f
12:04 5ft 11s 18 22 mph 1017.1mb 42f 44f
dim. 04/23 11:04 3ft 5s 18 20 mph 1017.3mb 42f 44f
10:04 5ft 11s 16 18 mph 1017.6mb 42f 43f
9:04 4ft 8s 16 20 mph 1017.3mb 42f 43f
8:04  -   -  16 18 mph 1016.9mb 42f 43f
7:04 4.5ft 8s 13 18 mph 1016.8mb 42f 43f
6:04 4.5ft 8s 13 16 mph 1016.5mb 42f 43f
5:04 5ft 11s 16 18 mph 1016.6mb 42f 43f
4:04 4.5ft 8s 16 18 mph 1016.8mb 42f 43f
3:04 5ft 11s 13
mph
1017.3mb 42f 43f
2:04  -   -  11 13 mph 1017.5mb 42f 42f
1:04 4.5ft 11s 9 11 mph 1017.5mb 42f 42f
12:04 4.5ft 11s 9 11 mph 1017.9mb 42f 42f
11:04 4ft 11s 7 9 mph 1018.2mb 42f 41f
10:04 4.5ft 11s 2
mph
1017.9mb 42f 40f
9:04 4ft 8s 4 7 mph 1017.5mb 42f 39f
8:04 4ft 11s 7
mph
1016.9mb 41f 39f
7:04 4.5ft 8s 7 9 mph 1015.9mb 41f 39f
6:04 4.5ft 8s 11
mph
1015.4mb 41f 38f
5:04 4.5ft 8s 11 13 mph 1014.8mb 41f 39f
4:04 4.5ft 8s 11 13 mph 1014.7mb 41f 39f
3:04 5.5ft 8s 9 11 mph 1014.4mb 41f 39f
2:04 6ft 8s 11 13 mph 1014.3mb 41f 39f
sam. 04/22 11:04 7.5ft 8s 9
mph
1014.2mb 41f 38f
10:04 6ft 8s 9 11 mph 1014.3mb 41f 38f
9:04 7ft 8s 13 16 mph 1014.1mb 42f 38f
8:04 6.5ft 8s 13 16 mph 1014.1mb 42f 38f
7:04 7ft 8s 16 20 mph 1013.8mb 42f 38f
6:04 7ft 8s 16 20 mph 1013.9mb 42f 38f
5:04 7ft 8s 16 18 mph 1014.2mb 41f 37f
4:04 7.5ft 8s 18 20 mph 1014.1mb 41f 37f
3:04 7ft 8s 16 18 mph 1014.5mb 41f 37f
2:04 7ft 6s 16 20 mph 1014.4mb 41f 38f
1:04 6ft 6s 16 18 mph 1014.7mb 41f 38f
12:04 6.5ft 6s 16 18 mph 1015mb 42f 38f
11:04 7ft 6s 16 20 mph 1015.5mb 42f 38f
10:04 7.5ft 6s 20 22 mph 1015.2mb 42f 38f
8:04 5.5ft 6s 22 27 mph 1015.5mb 42f 38f
7:04 7ft 6s 20 22 mph 1016mb 42f 38f
6:04 6.5ft 6s 22 25 mph 1015.8mb 42f 37f
5:04 6ft 6s 18 22 mph 1016.4mb 42f 38f
4:04 5.5ft 6s 20 25 mph 1016.7mb 42f 38f
3:04 6.5ft 6s 18 22 mph 1017.1mb 43f 38f
2:04 6.5ft 6s 18 20 mph 1017.3mb 43f 38f
1:04 5ft 6s 16 18 mph 1017.8mb 43f 39f